Time,TemperatureF,DewpointF,PressureIn,WindDirection,WindDirectionDegrees,WindSpeedMPH,WindSpeedGustMPH,Humidity,HourlyPrecipIn,Conditions,Clouds,dailyrainin,SolarRadiationWatts/m^2,SoftwareType,DateUTC
2013-08-26 00:14:00,81.0,74.0,-100.00,NNE,14,6.0,13.0,79,0.00,,,0.00,0.000000,,2013-08-26 04:14:00,
2013-08-26 00:24:00,81.0,74.0,-100.00,NNE,14,6.0,13.0,79,0.00,,,0.00,0.000000,,2013-08-26 04:24:00,
2013-08-26 00:34:00,81.0,74.0,-100.00,NNE,14,6.0,13.0,79,0.00,,,0.00,0.000000,,2013-08-26 04:34:00,
2013-08-26 01:13:00,82.0,76.0,-100.00,NE,39,5.0,10.0,81,0.00,,,0.00,0.000000,,2013-08-26 05:13:00,
2013-08-26 01:23:00,82.0,76.0,-100.00,NE,39,5.0,10.0,81,0.00,,,0.00,0.000000,,2013-08-26 05:23:00,
2013-08-26 01:33:00,82.0,76.0,-100.00,NE,39,5.0,10.0,81,0.00,,,0.00,0.000000,,2013-08-26 05:33:00,
2013-08-26 02:12:00,84.0,73.0,-100.00,East,84,7.0,12.0,70,0.00,,,0.00,0.000000,,2013-08-26 06:12:00,
2013-08-26 02:22:00,84.0,73.0,-100.00,East,84,7.0,12.0,70,0.00,,,0.00,0.000000,,2013-08-26 06:22:00,
2013-08-26 02:32:00,84.0,73.0,-100.00,East,84,7.0,12.0,70,0.00,,,0.00,0.000000,,2013-08-26 06:32:00,
2013-08-26 03:12:00,84.0,74.0,-100.00,East,85,7.0,13.0,71,0.00,,,0.00,0.000000,,2013-08-26 07:12:00,
2013-08-26 03:22:00,84.0,74.0,-100.00,East,85,7.0,13.0,71,0.00,,,0.00,0.000000,,2013-08-26 07:22:00,
2013-08-26 03:32:00,84.0,74.0,-100.00,East,85,7.0,13.0,71,0.00,,,0.00,0.000000,,2013-08-26 07:32:00,
2013-08-26 04:12:00,83.0,75.0,-100.00,East,86,7.0,14.0,76,0.00,,,0.00,0.000000,,2013-08-26 08:12:00,
2013-08-26 04:22:00,83.0,75.0,-100.00,East,86,7.0,14.0,76,0.00,,,0.00,0.000000,,2013-08-26 08:22:00,
2013-08-26 04:32:00,83.0,75.0,-100.00,East,86,7.0,14.0,76,0.00,,,0.00,0.000000,,2013-08-26 08:32:00,
2013-08-26 05:11:00,83.0,75.0,-100.00,East,94,7.0,14.0,78,0.00,,,0.00,0.000000,,2013-08-26 09:11:00,
2013-08-26 05:22:00,83.0,75.0,-100.00,East,94,7.0,14.0,78,0.00,,,0.00,0.000000,,2013-08-26 09:22:00,
2013-08-26 05:33:00,83.0,75.0,-100.00,East,94,7.0,14.0,78,0.00,,,0.00,0.000000,,2013-08-26 09:33:00,
2013-08-26 06:13:00,83.0,73.0,-100.00,East,87,7.0,14.0,71,0.00,,,0.00,0.000000,,2013-08-26 10:13:00,
2013-08-26 06:23:00,83.0,73.0,-100.00,East,87,7.0,14.0,71,0.00,,,0.00,0.000000,,2013-08-26 10:23:00,
2013-08-26 06:32:00,83.0,73.0,-100.00,East,87,7.0,14.0,71,0.00,,,0.00,0.000000,,2013-08-26 10:32:00,
2013-08-26 07:12:00,83.0,75.0,-100.00,ESE,103,4.0,13.0,76,0.00,,,0.00,0.000000,,2013-08-26 11:12:00,
2013-08-26 07:22:00,83.0,75.0,-100.00,ESE,103,4.0,13.0,76,0.00,,,0.00,0.000000,,2013-08-26 11:22:00,
2013-08-26 07:33:00,83.0,75.0,-100.00,ESE,103,4.0,13.0,76,0.00,,,0.00,0.000000,,2013-08-26 11:33:00,
2013-08-26 08:12:00,76.0,72.0,-100.00,South,173,6.0,18.0,87,0.01,,,0.01,2.000000,,2013-08-26 12:12:00,
2013-08-26 08:22:00,76.0,72.0,-100.00,South,173,6.0,18.0,87,0.01,,,0.01,2.000000,,2013-08-26 12:22:00,
2013-08-26 08:32:00,76.0,72.0,-100.00,South,173,6.0,18.0,87,0.01,,,0.01,2.000000,,2013-08-26 12:32:00,
2013-08-26 09:12:00,76.0,73.0,-100.00,West,274,2.0,7.0,89,0.00,,,0.01,11.000000,,2013-08-26 13:12:00,
2013-08-26 09:22:00,76.0,73.0,-100.00,West,274,2.0,7.0,89,0.00,,,0.01,11.000000,,2013-08-26 13:22:00,
2013-08-26 09:32:00,76.0,73.0,-100.00,West,274,2.0,7.0,89,0.00,,,0.01,11.000000,,2013-08-26 13:32:00,
2013-08-26 10:11:00,77.0,74.0,-100.00,WNW,299,2.0,3.0,90,0.00,,,0.01,26.000000,,2013-08-26 14:11:00,
2013-08-26 10:22:00,77.0,74.0,-100.00,WNW,299,2.0,3.0,90,0.00,,,0.01,26.000000,,2013-08-26 14:22:00,
2013-08-26 10:32:00,77.0,74.0,-100.00,WNW,299,2.0,3.0,90,0.00,,,0.01,26.000000,,2013-08-26 14:32:00,
2013-08-26 11:12:00,75.0,72.0,-100.00,NE,34,8.0,22.0,91,0.18,,,0.19,29.000000,,2013-08-26 15:12:00,
2013-08-26 11:22:00,75.0,72.0,-100.00,NE,34,8.0,22.0,91,0.18,,,0.19,29.000000,,2013-08-26 15:22:00,
2013-08-26 11:35:00,75.0,72.0,-100.00,NE,34,8.0,22.0,91,0.18,,,0.19,29.000000,,2013-08-26 15:35:00,
2013-08-26 12:17:00,76.0,72.0,-100.00,East,86,4.0,11.0,88,0.02,,,0.21,47.000000,,2013-08-26 16:17:00,
2013-08-26 12:29:00,76.0,72.0,-100.00,East,86,4.0,11.0,88,0.02,,,0.21,47.000000,,2013-08-26 16:29:00,
2013-08-26 12:37:00,76.0,72.0,-100.00,East,86,4.0,11.0,88,0.02,,,0.21,47.000000,,2013-08-26 16:37:00,
2013-08-26 13:12:00,78.0,73.0,-100.00,ESE,122,5.0,11.0,84,0.00,,,0.21,125.000000,,2013-08-26 17:12:00,
2013-08-26 13:24:00,78.0,73.0,-100.00,ESE,122,5.0,11.0,84,0.00,,,0.21,125.000000,,2013-08-26 17:24:00,
2013-08-26 13:37:00,78.0,73.0,-100.00,ESE,122,5.0,11.0,84,0.00,,,0.21,125.000000,,2013-08-26 17:37:00,
2013-08-26 14:12:00,81.0,73.0,-100.00,SSE,152,4.0,8.0,76,0.00,,,0.21,256.000000,,2013-08-26 18:12:00,
2013-08-26 14:22:00,81.0,73.0,-100.00,SSE,152,4.0,8.0,76,0.00,,,0.21,256.000000,,2013-08-26 18:22:00,
2013-08-26 14:32:00,81.0,73.0,-100.00,SSE,152,4.0,8.0,76,0.00,,,0.21,256.000000,,2013-08-26 18:32:00,
2013-08-26 15:11:00,84.0,70.0,-100.00,ENE,78,3.0,9.0,64,0.00,,,0.21,437.000000,,2013-08-26 19:11:00,
2013-08-26 15:22:00,84.0,70.0,-100.00,ENE,78,3.0,9.0,64,0.00,,,0.21,437.000000,,2013-08-26 19:22:00,
2013-08-26 15:32:00,84.0,70.0,-100.00,ENE,78,3.0,9.0,64,0.00,,,0.21,437.000000,,2013-08-26 19:32:00,
2013-08-26 16:11:00,84.0,71.0,-100.00,NE,37,2.0,6.0,65,0.00,,,0.21,317.000000,,2013-08-26 20:11:00,
2013-08-26 16:22:00,84.0,71.0,-100.00,NE,37,2.0,6.0,65,0.00,,,0.21,317.000000,,2013-08-26 20:22:00,
2013-08-26 16:32:00,84.0,71.0,-100.00,NE,37,2.0,6.0,65,0.00,,,0.21,317.000000,,2013-08-26 20:32:00,
2013-08-26 17:12:00,84.0,72.0,-100.00,NNE,32,2.0,5.0,67,0.00,,,0.21,285.000000,,2013-08-26 21:12:00,
2013-08-26 17:22:00,84.0,72.0,-100.00,NNE,32,2.0,5.0,67,0.00,,,0.21,285.000000,,2013-08-26 21:22:00,
2013-08-26 17:35:00,84.0,72.0,-100.00,NNE,32,2.0,5.0,67,0.00,,,0.21,285.000000,,2013-08-26 21:35:00,
2013-08-26 18:16:00,86.0,72.0,-100.00,NE,46,5.0,10.0,64,0.00,,,0.21,525.000000,,2013-08-26 22:16:00,
2013-08-26 18:26:00,86.0,72.0,-100.00,NE,46,5.0,10.0,64,0.00,,,0.21,525.000000,,2013-08-26 22:26:00,
2013-08-26 18:34:00,86.0,72.0,-100.00,NE,46,5.0,10.0,64,0.00,,,0.21,525.000000,,2013-08-26 22:34:00,
2013-08-26 19:13:00,82.0,72.0,-100.00,East,81,7.0,13.0,73,0.00,,,0.21,209.000000,,2013-08-26 23:13:00,
2013-08-26 19:22:00,82.0,72.0,-100.00,East,81,7.0,13.0,73,0.00,,,0.21,209.000000,,2013-08-26 23:22:00,
2013-08-26 19:34:00,82.0,72.0,-100.00,East,81,7.0,13.0,73,0.00,,,0.21,209.000000,,2013-08-26 23:34:00,
2013-08-26 20:11:00,81.0,74.0,-100.00,East,98,6.0,12.0,79,0.00,,,0.21,38.000000,,2013-08-27 00:11:00,
2013-08-26 20:22:00,81.0,74.0,-100.00,East,98,6.0,12.0,79,0.00,,,0.21,38.000000,,2013-08-27 00:22:00,
2013-08-26 20:32:00,81.0,74.0,-100.00,East,98,6.0,12.0,79,0.00,,,0.21,38.000000,,2013-08-27 00:32:00,
2013-08-26 21:12:00,80.0,73.0,-100.00,ESE,110,6.0,15.0,78,0.00,,,0.21,1.000000,,2013-08-27 01:12:00,
2013-08-26 21:22:00,80.0,73.0,-100.00,ESE,110,6.0,15.0,78,0.00,,,0.21,1.000000,,2013-08-27 01:22:00,
2013-08-26 21:32:00,80.0,73.0,-100.00,ESE,110,6.0,15.0,78,0.00,,,0.21,1.000000,,2013-08-27 01:32:00,
2013-08-26 22:12:00,79.0,70.0,-100.00,SE,126,3.0,12.0,75,0.00,,,0.21,0.000000,,2013-08-27 02:12:00,
2013-08-26 22:22:00,79.0,70.0,-100.00,SE,126,3.0,12.0,75,0.00,,,0.21,0.000000,,2013-08-27 02:22:00,
2013-08-26 22:32:00,79.0,70.0,-100.00,SE,126,3.0,12.0,75,0.00,,,0.21,0.000000,,2013-08-27 02:32:00,
2013-08-26 23:12:00,77.0,72.0,-100.00,ESE,112,3.0,6.0,86,0.00,,,0.21,0.000000,,2013-08-27 03:12:00,
2013-08-26 23:23:00,77.0,72.0,-100.00,ESE,112,3.0,6.0,86,0.00,,,0.21,0.000000,,2013-08-27 03:23:00,
2013-08-26 23:36:00,77.0,72.0,-100.00,ESE,112,3.0,6.0,86,0.00,,,0.21,0.000000,,2013-08-27 03:36:00,
2013-08-26 23:38:00,79.0,72.0,-100.00,SE,146,3.0,9.0,79,0.00,,,0.21,0.000000,,2013-08-27 03:38:00,